createdAt,value
2024-01-16T00:02:09.217Z,4.80
2024-01-16T00:04:38.895Z,3.35
2024-01-16T00:07:06.919Z,5.10
2024-01-16T00:09:35.930Z,2.38
2024-01-16T00:12:06.035Z,4.40
2024-01-16T00:14:37.341Z,4.13
2024-01-16T00:17:05.918Z,3.05
2024-01-16T00:19:34.014Z,11.52
2024-01-16T00:22:04.084Z,2.40
2024-01-16T00:24:32.091Z,7.30
2024-01-16T00:27:00.028Z,2.72
2024-01-16T00:29:29.388Z,2.33
2024-01-16T00:31:57.291Z,3.00
2024-01-16T00:34:25.428Z,4.10
2024-01-16T00:36:53.419Z,3.85
2024-01-16T00:39:21.325Z,3.47
2024-01-16T00:41:49.339Z,3.03
2024-01-16T00:44:17.361Z,7.50
2024-01-16T00:46:46.612Z,2.72
2024-01-16T00:49:14.747Z,5.30
2024-01-16T00:51:43.183Z,2.45
2024-01-16T00:54:11.078Z,4.95
2024-01-16T00:56:39.114Z,3.00
2024-01-16T00:59:07.125Z,2.85
2024-01-16T01:01:35.200Z,2.75
2024-01-16T01:04:04.556Z,5.43
2024-01-16T01:06:32.541Z,4.00
2024-01-16T01:09:00.578Z,8.05
2024-01-16T01:11:28.696Z,3.03
2024-01-16T01:13:56.792Z,4.50
2024-01-16T01:16:24.885Z,6.07
2024-01-16T01:18:53.064Z,4.97
2024-01-16T01:21:22.611Z,3.67
2024-01-16T01:23:50.625Z,2.95
2024-01-16T01:26:19.263Z,2.30
2024-01-16T01:28:46.570Z,3.92
2024-01-16T01:31:14.663Z,3.15
2024-01-16T01:33:43.551Z,6.55
2024-01-16T01:36:12.041Z,3.33
2024-01-16T01:38:41.280Z,2.38
2024-01-16T01:41:09.513Z,2.90
2024-01-16T01:43:37.471Z,2.75
2024-01-16T01:46:12.152Z,3.90
2024-01-16T01:48:42.040Z,3.80
2024-01-16T01:51:10.606Z,2.33
2024-01-16T01:53:39.322Z,2.97
2024-01-16T01:56:12.465Z,2.85
2024-01-16T01:58:40.775Z,3.40
2024-01-16T02:01:09.196Z,4.25
2024-01-16T02:03:43.563Z,3.95
2024-01-16T02:06:12.776Z,4.75
2024-01-16T02:08:41.882Z,6.97
2024-01-16T02:11:11.618Z,2.13
2024-01-16T02:13:39.768Z,3.47
2024-01-16T02:16:07.897Z,2.63
2024-01-16T02:18:35.890Z,4.07
2024-01-16T02:21:08.196Z,3.20
2024-01-16T02:23:37.693Z,3.85
2024-01-16T02:26:06.348Z,4.05
2024-01-16T02:28:34.287Z,1.98
2024-01-16T02:31:04.134Z,2.40
2024-01-16T02:33:32.177Z,2.30
2024-01-16T02:36:00.197Z,2.40
2024-01-16T02:38:28.215Z,2.75
2024-01-16T02:40:57.518Z,3.15
2024-01-16T02:43:27.522Z,2.20
2024-01-16T02:45:55.863Z,2.20
2024-01-16T02:48:23.977Z,2.42
2024-01-16T02:50:51.920Z,4.45
2024-01-16T02:53:19.872Z,2.55
2024-01-16T02:55:47.817Z,2.60
2024-01-16T02:58:17.148Z,2.45
2024-01-16T03:00:45.247Z,2.10
2024-01-16T03:03:13.276Z,2.90
2024-01-16T03:05:41.342Z,3.55
2024-01-16T03:08:09.507Z,3.10
2024-01-16T03:10:37.608Z,3.40
2024-01-16T03:13:05.870Z,2.40
2024-01-16T03:15:35.349Z,3.08
2024-01-16T03:18:03.661Z,2.58
2024-01-16T03:20:31.758Z,2.60
2024-01-16T03:22:59.765Z,3.55
2024-01-16T03:25:28.002Z,2.33
2024-01-16T03:27:56.136Z,4.03
2024-01-16T03:30:25.009Z,2.30
2024-01-16T03:32:54.436Z,2.10
2024-01-16T03:35:22.533Z,3.30
2024-01-16T03:37:50.478Z,2.20
2024-01-16T03:40:18.659Z,2.40
2024-01-16T03:42:46.658Z,3.63
2024-01-16T03:45:16.876Z,2.30
2024-01-16T03:47:46.168Z,2.35
2024-01-16T03:50:16.188Z,2.00
2024-01-16T03:52:44.170Z,3.22
2024-01-16T03:55:12.093Z,3.65
2024-01-16T03:57:40.606Z,4.55
2024-01-16T04:00:13.507Z,2.10
2024-01-16T04:02:41.472Z,3.25
2024-01-16T04:05:10.071Z,5.45
2024-01-16T04:07:39.386Z,4.28
2024-01-16T04:10:09.747Z,8.25
2024-01-16T04:12:37.728Z,2.78
2024-01-16T04:15:06.342Z,3.00
2024-01-16T04:17:34.364Z,4.07
2024-01-16T04:20:02.416Z,2.20
2024-01-16T04:22:30.378Z,3.05
2024-01-16T04:24:59.800Z,5.72
2024-01-16T04:27:27.932Z,2.78
2024-01-16T04:29:55.953Z,2.00
2024-01-16T04:32:24.077Z,2.70
2024-01-16T04:34:52.137Z,2.10
2024-01-16T04:37:20.185Z,2.00
2024-01-16T04:39:48.180Z,2.42
2024-01-16T04:42:18.692Z,2.80
2024-01-16T04:44:46.758Z,2.40
2024-01-16T04:47:14.736Z,4.38
2024-01-16T04:49:43.574Z,2.03
2024-01-16T04:52:11.495Z,2.10
2024-01-16T04:54:39.445Z,2.70
2024-01-16T04:57:07.542Z,5.38
2024-01-16T04:59:36.908Z,3.50
2024-01-16T05:02:04.929Z,2.15
2024-01-16T05:04:32.813Z,2.28
2024-01-16T05:07:00.890Z,2.00
2024-01-16T05:09:29.073Z,2.05
2024-01-16T05:11:57.007Z,3.85
2024-01-16T05:14:26.229Z,2.00
2024-01-16T05:16:55.555Z,2.75
2024-01-16T05:19:23.510Z,2.10
2024-01-16T05:21:51.543Z,2.20
2024-01-16T05:24:19.504Z,2.13
2024-01-16T05:26:47.442Z,2.67
2024-01-16T05:29:15.590Z,2.40
2024-01-16T05:31:43.630Z,4.13
2024-01-16T05:34:13.082Z,2.30
2024-01-16T05:36:41.502Z,2.47
2024-01-16T05:39:09.766Z,2.50
2024-01-16T05:41:38.950Z,2.92
2024-01-16T05:44:06.993Z,2.42
2024-01-16T05:46:35.360Z,2.20
2024-01-16T05:49:03.579Z,2.75
2024-01-16T05:51:32.911Z,2.25
2024-01-16T05:54:00.910Z,2.05
2024-01-16T05:56:28.906Z,2.13
2024-01-16T05:58:56.927Z,1.98
2024-01-16T06:01:24.902Z,2.55
2024-01-16T06:03:52.837Z,2.63
2024-01-16T06:06:21.332Z,2.20
2024-01-16T06:08:50.818Z,2.10
2024-01-16T06:11:19.518Z,3.13
2024-01-16T06:13:47.638Z,2.00
2024-01-16T06:16:15.954Z,5.00
2024-01-16T06:18:44.045Z,6.35
2024-01-16T06:21:13.299Z,2.33
2024-01-16T06:23:41.479Z,2.72
2024-01-16T06:26:12.048Z,2.33
2024-01-16T06:28:41.305Z,3.33
2024-01-16T06:31:09.317Z,3.53
2024-01-16T06:33:37.515Z,2.00
2024-01-16T06:36:06.674Z,4.35
2024-01-16T06:38:34.713Z,2.88
2024-01-16T06:41:02.932Z,2.30
2024-01-16T06:43:32.219Z,2.83
2024-01-16T06:46:00.369Z,2.58
2024-01-16T06:48:28.795Z,8.07
2024-01-16T06:50:56.861Z,2.20
2024-01-16T06:53:24.972Z,2.72
2024-01-16T06:55:52.985Z,4.00
2024-01-16T06:58:20.952Z,2.95
2024-01-16T07:00:50.578Z,2.45
2024-01-16T07:03:19.639Z,2.30
2024-01-16T07:05:47.734Z,3.47
2024-01-16T07:08:15.838Z,2.30
2024-01-16T07:10:43.999Z,2.20
2024-01-16T07:13:13.357Z,2.72
2024-01-16T07:15:41.309Z,2.63
2024-01-16T07:18:11.412Z,3.42
2024-01-16T07:20:39.550Z,3.10
2024-01-16T07:23:07.609Z,3.13
2024-01-16T07:25:35.620Z,2.40
2024-01-16T07:28:03.584Z,2.20
2024-01-16T07:30:31.603Z,1.90
2024-01-16T07:32:59.709Z,2.00
2024-01-16T07:35:29.108Z,2.47
2024-01-16T07:37:57.111Z,2.30
2024-01-16T07:40:25.061Z,2.47
2024-01-16T07:42:52.944Z,1.90
2024-01-16T07:45:20.908Z,3.90
2024-01-16T07:47:48.918Z,1.90
2024-01-16T07:50:17.015Z,2.20
2024-01-16T07:52:46.299Z,2.00
2024-01-16T07:55:14.312Z,2.20
2024-01-16T07:57:42.296Z,2.20
2024-01-16T08:00:13.034Z,2.95
2024-01-16T08:02:42.651Z,3.20
2024-01-16T08:05:11.321Z,2.30
2024-01-16T08:07:39.410Z,2.80
2024-01-16T08:10:11.196Z,2.65
2024-01-16T08:12:39.437Z,2.40
2024-01-16T08:15:13.076Z,4.68
2024-01-16T08:17:41.436Z,6.28
2024-01-16T08:20:11.125Z,2.30
2024-01-16T08:22:39.406Z,2.10
2024-01-16T08:25:09.148Z,3.28
2024-01-16T08:27:38.459Z,2.60
2024-01-16T08:30:08.212Z,2.33
2024-01-16T08:32:36.310Z,2.67
2024-01-16T08:35:06.320Z,2.60
2024-01-16T08:37:36.204Z,2.65
2024-01-16T08:40:05.805Z,2.50
2024-01-16T08:42:35.298Z,2.20
2024-01-16T08:45:03.277Z,3.40
2024-01-16T08:47:31.383Z,2.60
2024-01-16T08:49:59.719Z,2.40
2024-01-16T08:52:27.670Z,2.58
2024-01-16T08:54:55.587Z,2.58
2024-01-16T08:57:25.078Z,2.08
2024-01-16T08:59:55.765Z,3.85
2024-01-16T09:02:24.034Z,2.53
2024-01-16T09:04:52.302Z,5.35
2024-01-16T09:07:20.631Z,2.20
2024-01-16T09:09:48.644Z,3.50
2024-01-16T09:12:18.349Z,3.78
2024-01-16T09:14:47.420Z,3.65
2024-01-16T09:17:16.841Z,2.85
2024-01-16T09:19:44.879Z,2.28
2024-01-16T09:22:12.896Z,2.90
2024-01-16T09:24:40.849Z,3.05
2024-01-16T09:27:10.830Z,3.17
2024-01-16T09:29:45.363Z,2.42
2024-01-16T09:32:13.984Z,2.00
2024-01-16T09:34:43.353Z,2.53
2024-01-16T09:37:11.318Z,2.60
2024-01-16T09:39:39.396Z,2.65
2024-01-16T09:42:07.601Z,5.40
2024-01-16T09:44:38.631Z,2.58
2024-01-16T09:47:08.792Z,2.10
2024-01-16T09:49:36.834Z,2.20
2024-01-16T09:52:06.877Z,2.00
2024-01-16T09:54:35.383Z,2.63
2024-01-16T09:57:05.839Z,2.15
2024-01-16T09:59:34.654Z,2.20
2024-01-16T10:02:06.397Z,2.38
2024-01-16T10:04:34.861Z,3.85
2024-01-16T10:07:04.220Z,2.45
2024-01-16T10:09:35.607Z,3.15
2024-01-16T10:12:05.064Z,2.53
2024-01-16T10:14:33.198Z,2.45
2024-01-16T10:17:04.026Z,2.95
2024-01-16T10:19:42.597Z,4.13
2024-01-16T10:22:14.642Z,1.90
2024-01-16T10:24:44.336Z,2.05
2024-01-16T10:27:12.464Z,2.95
2024-01-16T10:29:57.183Z,6.03
2024-01-16T10:32:30.846Z,2.72
2024-01-16T10:35:06.733Z,3.45
2024-01-16T10:37:44.121Z,3.58
2024-01-16T10:40:17.420Z,2.20
2024-01-16T10:42:47.395Z,2.63
2024-01-16T10:45:21.594Z,4.93
2024-01-16T10:48:04.060Z,2.30
2024-01-16T10:50:32.975Z,2.15
2024-01-16T10:53:05.309Z,6.95
2024-01-16T10:55:40.516Z,3.72
2024-01-16T10:58:13.913Z,2.50
2024-01-16T11:00:43.655Z,2.28
2024-01-16T11:03:18.126Z,2.78
2024-01-16T11:05:48.198Z,5.53
2024-01-16T11:08:18.223Z,2.30
2024-01-16T11:10:50.705Z,2.75
2024-01-16T11:13:20.436Z,2.10
2024-01-16T11:15:51.712Z,3.03
2024-01-16T11:18:21.512Z,2.00
2024-01-16T11:21:03.157Z,3.15
2024-01-16T11:23:36.089Z,2.35
2024-01-16T11:26:27.680Z,4.32
2024-01-16T11:28:57.411Z,2.40
2024-01-16T11:31:33.125Z,2.30
2024-01-16T11:34:02.334Z,2.38
2024-01-16T11:36:53.406Z,2.40
2024-01-16T11:39:22.744Z,3.85
2024-01-16T11:41:57.099Z,2.35
2024-01-16T11:44:52.476Z,2.97
2024-01-16T11:47:22.083Z,2.10
2024-01-16T11:49:52.968Z,2.00
2024-01-16T11:52:43.079Z,3.10
2024-01-16T11:55:27.941Z,2.33
2024-01-16T11:58:22.869Z,5.30
2024-01-16T12:00:53.203Z,3.28
2024-01-16T12:03:31.727Z,2.25
2024-01-16T12:06:07.561Z,2.38
2024-01-16T12:08:37.768Z,2.80
2024-01-16T12:11:06.580Z,2.75
2024-01-16T12:13:35.989Z,5.68
2024-01-16T12:16:06.375Z,1.90
2024-01-16T12:18:42.217Z,2.22
2024-01-16T12:21:14.077Z,2.33
2024-01-16T12:23:49.527Z,2.45
2024-01-16T12:26:25.080Z,2.10
2024-01-16T12:28:59.466Z,2.45
2024-01-16T12:31:29.409Z,2.20
2024-01-16T12:34:08.808Z,2.00
2024-01-16T12:36:38.572Z,2.67
2024-01-16T12:39:07.947Z,2.10
2024-01-16T12:41:42.705Z,6.80
2024-01-16T12:44:16.726Z,2.10
2024-01-16T12:46:46.544Z,6.05
2024-01-16T12:49:14.875Z,3.13
2024-01-16T12:51:43.150Z,3.13
2024-01-16T12:54:15.883Z,1.90
2024-01-16T12:56:44.616Z,2.20
2024-01-16T12:59:15.044Z,4.38
2024-01-16T13:01:45.044Z,19.70
2024-01-16T13:04:15.108Z,16.13
2024-01-16T13:06:44.907Z,15.23
2024-01-16T13:09:18.038Z,18.88
2024-01-16T13:11:52.054Z,8.90
2024-01-16T13:14:23.147Z,12.70
2024-01-16T13:16:52.228Z,9.10
2024-01-16T13:19:20.870Z,16.80
2024-01-16T13:21:49.963Z,8.70
2024-01-16T13:24:22.697Z,10.70
2024-01-16T13:26:51.118Z,6.90
2024-01-16T13:29:20.351Z,7.97
2024-01-16T13:31:50.339Z,5.53
2024-01-16T13:34:27.686Z,10.65
2024-01-16T13:37:14.690Z,8.85
2024-01-16T13:39:44.739Z,9.52
2024-01-16T13:42:12.804Z,9.65
2024-01-16T13:44:41.006Z,5.93
2024-01-16T13:47:13.582Z,19.25
2024-01-16T13:49:44.450Z,4.80
2024-01-16T13:52:12.684Z,8.48
2024-01-16T13:54:41.190Z,5.65
2024-01-16T13:57:10.759Z,7.05
2024-01-16T13:59:41.690Z,7.95
2024-01-16T14:02:11.229Z,4.28
2024-01-16T14:04:39.474Z,6.38
2024-01-16T14:07:12.990Z,7.07
2024-01-16T14:09:45.096Z,12.68
2024-01-16T14:12:14.977Z,6.47
2024-01-16T14:14:44.148Z,7.88
2024-01-16T14:17:13.957Z,9.65
2024-01-16T14:19:42.143Z,5.57
2024-01-16T14:22:10.917Z,4.90
2024-01-16T14:24:39.443Z,6.13
2024-01-16T14:27:08.818Z,7.38
2024-01-16T14:29:41.101Z,4.93
2024-01-16T14:32:09.607Z,3.55
2024-01-16T14:34:39.194Z,8.10
2024-01-16T14:37:07.310Z,5.32
2024-01-16T14:39:37.390Z,3.88
2024-01-16T14:42:06.116Z,4.38
2024-01-16T14:44:34.304Z,2.83
2024-01-16T14:47:02.408Z,4.40
2024-01-16T14:49:33.305Z,4.50
2024-01-16T14:52:03.151Z,3.30
2024-01-16T14:54:31.277Z,3.25
2024-01-16T14:57:00.121Z,3.60
2024-01-16T14:59:28.504Z,3.88
2024-01-16T15:01:56.676Z,6.78
2024-01-16T15:04:24.804Z,8.13
2024-01-16T15:06:53.922Z,3.28
2024-01-16T15:09:23.806Z,5.70
2024-01-16T15:11:51.886Z,8.48
2024-01-16T15:14:19.915Z,2.50
2024-01-16T15:16:48.049Z,5.30
2024-01-16T15:19:16.346Z,6.03
2024-01-16T15:21:44.541Z,4.03
2024-01-16T15:24:17.304Z,3.28
2024-01-16T15:26:46.877Z,3.75
2024-01-16T15:29:15.394Z,4.45
2024-01-16T15:31:43.449Z,2.75
2024-01-16T15:34:14.860Z,4.60
2024-01-16T15:36:45.190Z,5.55
2024-01-16T15:39:13.779Z,6.22
2024-01-16T15:41:41.995Z,5.22
2024-01-16T15:44:12.158Z,2.50
2024-01-16T15:46:56.412Z,4.95
2024-01-16T15:49:25.807Z,3.80
2024-01-16T15:51:54.417Z,5.60
2024-01-16T15:54:22.876Z,3.47
2024-01-16T15:56:52.658Z,3.30
2024-01-16T15:59:22.649Z,4.32
2024-01-16T16:01:52.122Z,4.25
2024-01-16T16:04:20.467Z,2.70
2024-01-16T16:06:48.700Z,2.38
2024-01-16T16:09:17.816Z,3.75
2024-01-16T16:11:47.733Z,3.17
2024-01-16T16:14:16.701Z,2.53
2024-01-16T16:16:46.756Z,3.55
2024-01-16T16:19:14.911Z,2.10
2024-01-16T16:21:43.056Z,5.40
2024-01-16T16:24:11.162Z,3.05
2024-01-16T16:26:41.060Z,5.13
2024-01-16T16:29:10.868Z,3.30
2024-01-16T16:31:40.068Z,2.95
2024-01-16T16:34:13.222Z,4.53
2024-01-16T16:36:43.145Z,2.28
2024-01-16T16:39:11.373Z,3.75
2024-01-16T16:41:42.837Z,4.40
2024-01-16T16:44:11.656Z,3.03
2024-01-16T16:46:39.800Z,5.22
2024-01-16T16:49:10.486Z,3.00
2024-01-16T16:51:43.127Z,7.53
2024-01-16T16:54:12.865Z,3.28
2024-01-16T16:56:42.309Z,2.55
2024-01-16T16:59:11.060Z,2.80
2024-01-16T17:01:40.020Z,15.85
2024-01-16T17:04:10.008Z,3.50
2024-01-16T17:06:38.492Z,3.60
2024-01-16T17:09:07.792Z,8.52
2024-01-16T17:11:36.125Z,2.75
2024-01-16T17:14:05.007Z,3.65
2024-01-16T17:16:33.378Z,3.70
2024-01-16T17:19:01.674Z,2.55
2024-01-16T17:21:31.253Z,7.15
2024-01-16T17:24:00.876Z,2.33
2024-01-16T17:26:31.292Z,3.80
2024-01-16T17:29:00.878Z,6.88
2024-01-16T17:31:29.226Z,9.90
2024-01-16T17:33:57.964Z,9.00
2024-01-16T17:36:26.449Z,118.72
2024-01-16T17:39:00.340Z,175.63
2024-01-16T17:41:30.278Z,174.98
2024-01-16T17:43:59.069Z,81.93
2024-01-16T17:46:27.259Z,73.68
2024-01-16T17:48:57.450Z,70.13
2024-01-16T17:51:26.258Z,51.45
2024-01-16T17:53:56.955Z,59.65
2024-01-16T17:56:26.917Z,43.28
2024-01-16T17:58:56.038Z,64.68
2024-01-16T18:01:26.782Z,42.83
2024-01-16T18:03:58.250Z,51.17
2024-01-16T18:06:26.616Z,37.13
2024-01-16T18:08:56.252Z,38.65
2024-01-16T18:11:24.649Z,41.28
2024-01-16T18:13:52.822Z,35.40
2024-01-16T18:16:20.843Z,35.28
2024-01-16T18:18:49.065Z,27.40
2024-01-16T18:21:17.212Z,29.85
2024-01-16T18:23:48.301Z,24.13
2024-01-16T18:26:17.836Z,37.78
2024-01-16T18:28:45.971Z,26.17
2024-01-16T18:33:44.614Z,19.35
2024-01-16T18:36:13.732Z,22.08
2024-01-16T18:38:46.333Z,22.35
2024-01-16T18:41:14.876Z,15.73
2024-01-16T18:43:46.151Z,18.88
2024-01-16T18:46:16.309Z,18.52
2024-01-16T18:48:46.415Z,13.65
2024-01-16T18:51:15.021Z,11.18
2024-01-16T18:53:43.190Z,12.50
2024-01-16T18:56:15.239Z,13.65
2024-01-16T18:58:45.097Z,15.68
2024-01-16T19:01:14.556Z,16.92
2024-01-16T19:03:42.798Z,14.45
2024-01-16T19:06:13.938Z,11.50
2024-01-16T19:08:43.084Z,15.40
2024-01-16T19:11:11.707Z,15.57
2024-01-16T19:13:41.431Z,12.93
2024-01-16T19:16:11.280Z,11.70
2024-01-16T19:18:42.013Z,11.10
2024-01-16T19:21:10.772Z,10.38
2024-01-16T19:23:40.008Z,8.15
2024-01-16T19:26:10.326Z,10.63
2024-01-16T19:28:39.829Z,8.95
2024-01-16T19:31:08.107Z,6.47
2024-01-16T19:33:38.066Z,8.07
2024-01-16T19:36:06.912Z,24.35
2024-01-16T19:38:36.605Z,9.70
2024-01-16T19:41:05.176Z,8.13
2024-01-16T19:43:36.858Z,9.70
2024-01-16T19:46:05.240Z,12.25
2024-01-16T19:48:36.056Z,10.13
2024-01-16T19:51:05.997Z,14.80
2024-01-16T19:53:34.266Z,6.60
2024-01-16T19:56:06.406Z,9.60
2024-01-16T19:58:34.556Z,5.40
2024-01-16T20:01:03.880Z,15.82
2024-01-16T20:03:34.275Z,22.00
2024-01-16T20:06:02.627Z,9.20
2024-01-16T20:08:32.193Z,6.13
2024-01-16T20:11:00.371Z,6.15
2024-01-16T20:13:28.588Z,10.88
2024-01-16T20:15:56.673Z,6.90
2024-01-16T20:18:24.921Z,9.27
2024-01-16T20:20:53.250Z,9.98
2024-01-16T20:23:21.400Z,4.38
2024-01-16T20:25:51.127Z,3.78
2024-01-16T20:28:19.242Z,10.00
2024-01-16T20:30:47.307Z,5.90
2024-01-16T20:33:15.596Z,6.35
2024-01-16T20:35:43.820Z,5.60
2024-01-16T20:38:11.959Z,7.55
2024-01-16T20:40:40.827Z,6.57
2024-01-16T20:43:10.436Z,4.38
2024-01-16T20:45:38.744Z,4.85
2024-01-16T20:48:09.174Z,4.28
2024-01-16T20:50:37.361Z,3.20
2024-01-16T20:53:05.655Z,5.82
2024-01-16T20:55:35.916Z,8.23
2024-01-16T20:58:05.196Z,7.45
2024-01-16T21:00:35.476Z,4.30
2024-01-16T21:03:08.531Z,4.45
2024-01-16T21:05:36.965Z,8.00
2024-01-16T21:08:06.045Z,9.18
2024-01-16T21:10:34.365Z,4.20
2024-01-16T21:13:02.443Z,7.15
2024-01-16T21:15:32.060Z,6.55
2024-01-16T21:18:01.868Z,8.80
2024-01-16T21:20:29.970Z,3.60
2024-01-16T21:22:58.144Z,5.57
2024-01-16T21:25:26.396Z,6.38
2024-01-16T21:27:57.184Z,8.25
2024-01-16T21:30:27.664Z,10.75
2024-01-16T21:32:56.101Z,8.88
2024-01-16T21:35:25.692Z,4.40
2024-01-16T21:37:54.415Z,5.78
2024-01-16T21:40:22.630Z,5.80
2024-01-16T21:42:51.065Z,5.10
2024-01-16T21:45:19.189Z,5.63
2024-01-16T21:47:49.921Z,5.05
2024-01-16T21:50:25.993Z,7.47
2024-01-16T21:53:03.102Z,6.20
2024-01-16T21:55:31.360Z,8.05
2024-01-16T21:57:59.501Z,4.13
2024-01-16T22:00:27.715Z,5.20
2024-01-16T22:02:58.816Z,4.90
2024-01-16T22:05:30.724Z,4.20
2024-01-16T22:07:59.260Z,3.55
2024-01-16T22:10:31.025Z,4.32
2024-01-16T22:12:59.214Z,5.05
2024-01-16T22:15:27.487Z,4.00
2024-01-16T22:17:56.837Z,3.75
2024-01-16T22:20:25.347Z,5.10
2024-01-16T22:22:53.512Z,5.18
2024-01-16T22:25:21.545Z,7.82
2024-01-16T22:27:50.942Z,5.78
2024-01-16T22:30:19.321Z,3.97
2024-01-16T22:32:47.562Z,6.18
2024-01-16T22:35:15.938Z,8.25
2024-01-16T22:37:47.911Z,5.75
2024-01-16T22:40:17.359Z,5.57
2024-01-16T22:42:45.415Z,6.63
2024-01-16T22:45:15.613Z,3.72
2024-01-16T22:47:44.251Z,7.03
2024-01-16T22:50:12.604Z,5.32
2024-01-16T22:52:41.358Z,5.68
2024-01-16T22:55:09.996Z,5.80
2024-01-16T22:57:38.012Z,4.50
2024-01-16T23:00:17.804Z,6.70
2024-01-16T23:02:48.487Z,5.60
2024-01-16T23:05:18.374Z,4.45
2024-01-16T23:07:46.431Z,4.60
2024-01-16T23:10:16.169Z,4.32
2024-01-16T23:12:45.053Z,5.72
2024-01-16T23:15:13.841Z,4.13
2024-01-16T23:17:42.987Z,3.45
2024-01-16T23:20:15.814Z,4.30
2024-01-16T23:22:44.075Z,7.38
2024-01-16T23:25:12.990Z,4.03
2024-01-16T23:27:42.257Z,7.55
2024-01-16T23:30:13.030Z,3.75
2024-01-16T23:32:41.176Z,5.75
2024-01-16T23:35:10.518Z,5.13
2024-01-16T23:37:41.622Z,8.07
2024-01-16T23:40:13.331Z,6.22
2024-01-16T23:42:42.311Z,3.85
2024-01-16T23:45:20.503Z,5.18
2024-01-16T23:47:55.604Z,6.20
2024-01-16T23:50:23.756Z,3.85
2024-01-16T23:52:54.148Z,5.70
2024-01-16T23:55:22.260Z,3.75
2024-01-16T23:57:50.253Z,5.05
